sensor_id;sensor_type;location;lat;lon;timestamp;P1;durP1;ratioP1;P2;durP2;ratioP2
44428;SDS011;30134;47.866;-4.222;2023-06-10T00:02:11;9.80;;;8.05;;
44428;SDS011;30134;47.866;-4.222;2023-06-10T00:04:37;9.05;;;7.70;;
44428;SDS011;30134;47.866;-4.222;2023-06-10T00:07:04;9.88;;;7.28;;
44428;SDS011;30134;47.866;-4.222;2023-06-10T00:09:36;8.18;;;7.03;;
44428;SDS011;30134;47.866;-4.222;2023-06-10T00:12:07;10.38;;;7.50;;
44428;SDS011;30134;47.866;-4.222;2023-06-10T00:14:37;8.07;;;6.78;;
44428;SDS011;30134;47.866;-4.222;2023-06-10T00:17:04;9.52;;;6.88;;
44428;SDS011;30134;47.866;-4.222;2023-06-10T00:19:34;8.45;;;7.03;;
44428;SDS011;30134;47.866;-4.222;2023-06-10T00:22:00;9.02;;;6.38;;
44428;SDS011;30134;47.866;-4.222;2023-06-10T00:24:28;9.15;;;6.68;;
44428;SDS011;30134;47.866;-4.222;2023-06-10T00:26:54;7.93;;;6.82;;
44428;SDS011;30134;47.866;-4.222;2023-06-10T00:29:20;9.85;;;6.45;;
44428;SDS011;30134;47.866;-4.222;2023-06-10T00:31:46;8.60;;;6.70;;
44428;SDS011;30134;47.866;-4.222;2023-06-10T00:34:12;8.15;;;6.20;;
44428;SDS011;30134;47.866;-4.222;2023-06-10T00:36:39;7.30;;;6.03;;
44428;SDS011;30134;47.866;-4.222;2023-06-10T00:39:05;8.90;;;6.20;;
44428;SDS011;30134;47.866;-4.222;2023-06-10T00:41:32;7.78;;;6.22;;
44428;SDS011;30134;47.866;-4.222;2023-06-10T00:43:59;8.27;;;6.10;;
44428;SDS011;30134;47.866;-4.222;2023-06-10T00:46:25;7.15;;;6.18;;
44428;SDS011;30134;47.866;-4.222;2023-06-10T00:48:52;7.28;;;5.57;;
44428;SDS011;30134;47.866;-4.222;2023-06-10T00:51:18;8.43;;;6.35;;
44428;SDS011;30134;47.866;-4.222;2023-06-10T00:53:44;6.40;;;5.20;;
44428;SDS011;30134;47.866;-4.222;2023-06-10T00:56:11;8.63;;;5.82;;
44428;SDS011;30134;47.866;-4.222;2023-06-10T00:58:38;8.43;;;5.93;;
44428;SDS011;30134;47.866;-4.222;2023-06-10T01:01:04;6.65;;;5.93;;
44428;SDS011;30134;47.866;-4.222;2023-06-10T01:03:30;8.60;;;6.25;;
44428;SDS011;30134;47.866;-4.222;2023-06-10T01:06:20;10.50;;;6.10;;
44428;SDS011;30134;47.866;-4.222;2023-06-10T01:09:13;7.18;;;5.80;;
44428;SDS011;30134;47.866;-4.222;2023-06-10T01:14:38;7.63;;;5.45;;
44428;SDS011;30134;47.866;-4.222;2023-06-10T01:17:10;6.72;;;5.45;;
44428;SDS011;30134;47.866;-4.222;2023-06-10T01:19:37;7.90;;;5.55;;
44428;SDS011;30134;47.866;-4.222;2023-06-10T01:22:05;6.97;;;5.47;;
44428;SDS011;30134;47.866;-4.222;2023-06-10T01:24:32;7.22;;;5.38;;
44428;SDS011;30134;47.866;-4.222;2023-06-10T01:27:00;6.28;;;4.82;;
44428;SDS011;30134;47.866;-4.222;2023-06-10T01:29:39;7.03;;;5.55;;
44428;SDS011;30134;47.866;-4.222;2023-06-10T01:32:18;7.20;;;5.32;;
44428;SDS011;30134;47.866;-4.222;2023-06-10T01:34:50;7.05;;;5.53;;
44428;SDS011;30134;47.866;-4.222;2023-06-10T01:37:18;6.72;;;5.38;;
44428;SDS011;30134;47.866;-4.222;2023-06-10T01:39:48;6.57;;;4.90;;
44428;SDS011;30134;47.866;-4.222;2023-06-10T01:42:15;7.43;;;5.57;;
44428;SDS011;30134;47.866;-4.222;2023-06-10T01:44:42;4.60;;;4.15;;
44428;SDS011;30134;47.866;-4.222;2023-06-10T01:47:08;6.25;;;5.28;;
44428;SDS011;30134;47.866;-4.222;2023-06-10T01:49:35;6.90;;;5.25;;
44428;SDS011;30134;47.866;-4.222;2023-06-10T01:52:02;6.53;;;4.90;;
44428;SDS011;30134;47.866;-4.222;2023-06-10T01:54:28;6.20;;;5.07;;
44428;SDS011;30134;47.866;-4.222;2023-06-10T01:56:55;6.88;;;5.18;;
44428;SDS011;30134;47.866;-4.222;2023-06-10T01:59:21;6.47;;;4.47;;
44428;SDS011;30134;47.866;-4.222;2023-06-10T02:01:47;7.07;;;5.00;;
44428;SDS011;30134;47.866;-4.222;2023-06-10T02:04:13;7.75;;;4.95;;
44428;SDS011;30134;47.866;-4.222;2023-06-10T02:06:40;5.20;;;4.65;;
44428;SDS011;30134;47.866;-4.222;2023-06-10T02:09:06;5.18;;;4.63;;
44428;SDS011;30134;47.866;-4.222;2023-06-10T02:11:33;5.30;;;4.72;;
44428;SDS011;30134;47.866;-4.222;2023-06-10T02:13:59;5.53;;;4.90;;
44428;SDS011;30134;47.866;-4.222;2023-06-10T02:16:25;6.47;;;4.80;;
44428;SDS011;30134;47.866;-4.222;2023-06-10T02:18:51;5.68;;;4.75;;
44428;SDS011;30134;47.866;-4.222;2023-06-10T02:21:18;5.50;;;4.25;;
44428;SDS011;30134;47.866;-4.222;2023-06-10T02:23:44;5.43;;;4.55;;
44428;SDS011;30134;47.866;-4.222;2023-06-10T02:26:11;7.88;;;4.82;;
44428;SDS011;30134;47.866;-4.222;2023-06-10T02:28:37;5.63;;;4.47;;
44428;SDS011;30134;47.866;-4.222;2023-06-10T02:31:03;5.47;;;4.68;;
44428;SDS011;30134;47.866;-4.222;2023-06-10T02:33:29;6.72;;;4.85;;
44428;SDS011;30134;47.866;-4.222;2023-06-10T02:35:56;7.63;;;4.80;;
44428;SDS011;30134;47.866;-4.222;2023-06-10T02:38:22;4.88;;;4.22;;
44428;SDS011;30134;47.866;-4.222;2023-06-10T02:40:49;6.80;;;4.72;;
44428;SDS011;30134;47.866;-4.222;2023-06-10T02:43:15;5.07;;;4.50;;
44428;SDS011;30134;47.866;-4.222;2023-06-10T02:45:41;5.78;;;4.65;;
44428;SDS011;30134;47.866;-4.222;2023-06-10T02:48:08;5.80;;;4.15;;
44428;SDS011;30134;47.866;-4.222;2023-06-10T02:50:34;5.10;;;4.32;;
44428;SDS011;30134;47.866;-4.222;2023-06-10T02:53:00;5.65;;;4.57;;
44428;SDS011;30134;47.866;-4.222;2023-06-10T02:55:28;5.07;;;4.47;;
44428;SDS011;30134;47.866;-4.222;2023-06-10T02:57:54;6.75;;;4.95;;
44428;SDS011;30134;47.866;-4.222;2023-06-10T03:00:20;4.97;;;4.20;;
44428;SDS011;30134;47.866;-4.222;2023-06-10T03:02:47;5.85;;;4.38;;
44428;SDS011;30134;47.866;-4.222;2023-06-10T03:05:14;4.75;;;4.20;;
44428;SDS011;30134;47.866;-4.222;2023-06-10T03:07:42;5.10;;;4.07;;
44428;SDS011;30134;47.866;-4.222;2023-06-10T03:10:08;6.20;;;4.25;;
44428;SDS011;30134;47.866;-4.222;2023-06-10T03:12:34;5.72;;;4.28;;
44428;SDS011;30134;47.866;-4.222;2023-06-10T03:15:01;4.45;;;3.95;;
44428;SDS011;30134;47.866;-4.222;2023-06-10T03:17:29;5.63;;;4.30;;
44428;SDS011;30134;47.866;-4.222;2023-06-10T03:19:55;5.88;;;4.15;;
44428;SDS011;30134;47.866;-4.222;2023-06-10T03:22:21;4.60;;;4.15;;
44428;SDS011;30134;47.866;-4.222;2023-06-10T03:24:48;5.82;;;4.88;;
44428;SDS011;30134;47.866;-4.222;2023-06-10T03:27:17;5.28;;;4.25;;
44428;SDS011;30134;47.866;-4.222;2023-06-10T03:29:43;7.28;;;5.07;;
44428;SDS011;30134;47.866;-4.222;2023-06-10T03:32:09;5.78;;;4.40;;
44428;SDS011;30134;47.866;-4.222;2023-06-10T03:34:36;7.88;;;4.05;;
44428;SDS011;30134;47.866;-4.222;2023-06-10T03:37:03;5.78;;;4.22;;
44428;SDS011;30134;47.866;-4.222;2023-06-10T03:39:31;6.57;;;4.30;;
44428;SDS011;30134;47.866;-4.222;2023-06-10T03:41:57;4.55;;;4.10;;
44428;SDS011;30134;47.866;-4.222;2023-06-10T03:44:26;5.45;;;4.20;;
44428;SDS011;30134;47.866;-4.222;2023-06-10T03:46:54;6.65;;;4.50;;
44428;SDS011;30134;47.866;-4.222;2023-06-10T03:49:21;5.30;;;3.88;;
44428;SDS011;30134;47.866;-4.222;2023-06-10T03:51:52;4.68;;;4.18;;
44428;SDS011;30134;47.866;-4.222;2023-06-10T03:54:19;5.22;;;4.32;;
44428;SDS011;30134;47.866;-4.222;2023-06-10T03:56:45;5.63;;;4.28;;
44428;SDS011;30134;47.866;-4.222;2023-06-10T03:59:13;5.57;;;4.22;;
44428;SDS011;30134;47.866;-4.222;2023-06-10T04:01:39;5.72;;;4.25;;
44428;SDS011;30134;47.866;-4.222;2023-06-10T04:04:06;5.63;;;4.38;;
44428;SDS011;30134;47.866;-4.222;2023-06-10T04:06:32;5.32;;;4.40;;
44428;SDS011;30134;47.866;-4.222;2023-06-10T04:08:58;5.03;;;4.00;;
44428;SDS011;30134;47.866;-4.222;2023-06-10T04:11:24;5.75;;;4.32;;
44428;SDS011;30134;47.866;-4.222;2023-06-10T04:13:50;4.93;;;4.28;;
44428;SDS011;30134;47.866;-4.222;2023-06-10T04:16:17;5.80;;;4.20;;
44428;SDS011;30134;47.866;-4.222;2023-06-10T04:18:46;4.57;;;3.80;;
44428;SDS011;30134;47.866;-4.222;2023-06-10T04:21:13;5.78;;;4.40;;
44428;SDS011;30134;47.866;-4.222;2023-06-10T04:23:42;6.03;;;4.00;;
44428;SDS011;30134;47.866;-4.222;2023-06-10T04:26:08;7.25;;;4.47;;
44428;SDS011;30134;47.866;-4.222;2023-06-10T04:28:36;7.07;;;4.50;;
44428;SDS011;30134;47.866;-4.222;2023-06-10T04:31:02;6.03;;;4.05;;
44428;SDS011;30134;47.866;-4.222;2023-06-10T04:33:29;5.65;;;3.75;;
44428;SDS011;30134;47.866;-4.222;2023-06-10T04:35:56;4.32;;;3.78;;
44428;SDS011;30134;47.866;-4.222;2023-06-10T04:38:22;5.07;;;4.35;;
44428;SDS011;30134;47.866;-4.222;2023-06-10T04:40:49;4.63;;;3.88;;
44428;SDS011;30134;47.866;-4.222;2023-06-10T04:43:15;5.13;;;3.95;;
44428;SDS011;30134;47.866;-4.222;2023-06-10T04:45:42;6.28;;;4.30;;
44428;SDS011;30134;47.866;-4.222;2023-06-10T04:48:10;7.15;;;4.80;;
44428;SDS011;30134;47.866;-4.222;2023-06-10T04:50:36;5.15;;;3.83;;
44428;SDS011;30134;47.866;-4.222;2023-06-10T04:53:04;5.70;;;4.00;;
44428;SDS011;30134;47.866;-4.222;2023-06-10T04:55:31;5.85;;;4.20;;
44428;SDS011;30134;47.866;-4.222;2023-06-10T04:57:58;5.43;;;4.10;;
44428;SDS011;30134;47.866;-4.222;2023-06-10T05:00:24;7.32;;;4.05;;
44428;SDS011;30134;47.866;-4.222;2023-06-10T05:02:50;4.38;;;3.50;;
44428;SDS011;30134;47.866;-4.222;2023-06-10T05:05:17;5.43;;;3.78;;
44428;SDS011;30134;47.866;-4.222;2023-06-10T05:07:43;4.88;;;3.80;;
44428;SDS011;30134;47.866;-4.222;2023-06-10T05:10:10;5.57;;;4.35;;
44428;SDS011;30134;47.866;-4.222;2023-06-10T05:12:39;4.43;;;3.88;;
44428;SDS011;30134;47.866;-4.222;2023-06-10T05:15:06;6.70;;;4.10;;
44428;SDS011;30134;47.866;-4.222;2023-06-10T05:17:33;5.00;;;3.88;;
44428;SDS011;30134;47.866;-4.222;2023-06-10T05:20:02;5.00;;;3.72;;
44428;SDS011;30134;47.866;-4.222;2023-06-10T05:22:29;7.32;;;3.55;;
44428;SDS011;30134;47.866;-4.222;2023-06-10T05:24:55;5.60;;;3.55;;
44428;SDS011;30134;47.866;-4.222;2023-06-10T05:27:22;4.88;;;3.70;;
44428;SDS011;30134;47.866;-4.222;2023-06-10T05:29:49;4.53;;;3.22;;
44428;SDS011;30134;47.866;-4.222;2023-06-10T05:32:16;5.35;;;3.47;;
44428;SDS011;30134;47.866;-4.222;2023-06-10T05:34:43;5.20;;;3.38;;
44428;SDS011;30134;47.866;-4.222;2023-06-10T05:37:10;4.50;;;3.50;;
44428;SDS011;30134;47.866;-4.222;2023-06-10T05:39:37;4.18;;;3.35;;
44428;SDS011;30134;47.866;-4.222;2023-06-10T05:42:05;4.95;;;3.22;;
44428;SDS011;30134;47.866;-4.222;2023-06-10T05:44:32;4.82;;;3.60;;
44428;SDS011;30134;47.866;-4.222;2023-06-10T05:46:59;6.65;;;3.45;;
44428;SDS011;30134;47.866;-4.222;2023-06-10T05:49:25;5.38;;;3.53;;
44428;SDS011;30134;47.866;-4.222;2023-06-10T05:51:52;6.63;;;3.50;;
44428;SDS011;30134;47.866;-4.222;2023-06-10T05:54:18;4.20;;;3.40;;
44428;SDS011;30134;47.866;-4.222;2023-06-10T05:56:45;4.72;;;3.50;;
44428;SDS011;30134;47.866;-4.222;2023-06-10T05:59:11;4.35;;;3.17;;
44428;SDS011;30134;47.866;-4.222;2023-06-10T06:01:37;5.78;;;3.83;;
44428;SDS011;30134;47.866;-4.222;2023-06-10T06:04:03;4.32;;;3.22;;
44428;SDS011;30134;47.866;-4.222;2023-06-10T06:06:30;3.45;;;2.88;;
44428;SDS011;30134;47.866;-4.222;2023-06-10T06:08:56;6.05;;;3.17;;
44428;SDS011;30134;47.866;-4.222;2023-06-10T06:11:23;3.47;;;3.17;;
44428;SDS011;30134;47.866;-4.222;2023-06-10T06:13:52;3.83;;;3.28;;
44428;SDS011;30134;47.866;-4.222;2023-06-10T06:16:18;3.83;;;3.05;;
44428;SDS011;30134;47.866;-4.222;2023-06-10T06:18:46;3.75;;;3.20;;
44428;SDS011;30134;47.866;-4.222;2023-06-10T06:21:13;4.53;;;3.28;;
44428;SDS011;30134;47.866;-4.222;2023-06-10T06:23:39;4.57;;;3.33;;
44428;SDS011;30134;47.866;-4.222;2023-06-10T06:26:06;5.40;;;3.17;;
44428;SDS011;30134;47.866;-4.222;2023-06-10T06:28:33;4.53;;;3.38;;
44428;SDS011;30134;47.866;-4.222;2023-06-10T06:31:00;3.70;;;2.90;;
44428;SDS011;30134;47.866;-4.222;2023-06-10T06:33:26;4.03;;;3.33;;
44428;SDS011;30134;47.866;-4.222;2023-06-10T06:35:52;4.20;;;3.30;;
44428;SDS011;30134;47.866;-4.222;2023-06-10T06:38:18;4.13;;;3.20;;
44428;SDS011;30134;47.866;-4.222;2023-06-10T06:40:44;4.22;;;3.00;;
44428;SDS011;30134;47.866;-4.222;2023-06-10T06:43:10;4.00;;;2.88;;
44428;SDS011;30134;47.866;-4.222;2023-06-10T06:45:36;3.53;;;2.83;;
44428;SDS011;30134;47.866;-4.222;2023-06-10T06:48:02;3.42;;;2.72;;
44428;SDS011;30134;47.866;-4.222;2023-06-10T06:50:30;3.97;;;3.05;;
44428;SDS011;30134;47.866;-4.222;2023-06-10T06:52:56;4.70;;;3.25;;
44428;SDS011;30134;47.866;-4.222;2023-06-10T06:55:22;3.30;;;2.55;;
44428;SDS011;30134;47.866;-4.222;2023-06-10T06:57:51;4.63;;;2.80;;
44428;SDS011;30134;47.866;-4.222;2023-06-10T07:00:17;5.80;;;2.67;;
44428;SDS011;30134;47.866;-4.222;2023-06-10T07:02:44;3.75;;;2.55;;
44428;SDS011;30134;47.866;-4.222;2023-06-10T07:05:10;7.50;;;2.95;;
44428;SDS011;30134;47.866;-4.222;2023-06-10T07:07:37;9.13;;;4.25;;
44428;SDS011;30134;47.866;-4.222;2023-06-10T07:10:03;11.40;;;6.38;;
44428;SDS011;30134;47.866;-4.222;2023-06-10T07:12:29;8.90;;;6.10;;
44428;SDS011;30134;47.866;-4.222;2023-06-10T07:14:55;17.92;;;12.70;;
44428;SDS011;30134;47.866;-4.222;2023-06-10T07:17:21;15.80;;;9.73;;
44428;SDS011;30134;47.866;-4.222;2023-06-10T07:19:47;13.82;;;8.85;;
44428;SDS011;30134;47.866;-4.222;2023-06-10T07:22:24;13.40;;;7.55;;
44428;SDS011;30134;47.866;-4.222;2023-06-10T07:24:50;11.38;;;7.07;;
44428;SDS011;30134;47.866;-4.222;2023-06-10T07:27:17;11.80;;;6.60;;
44428;SDS011;30134;47.866;-4.222;2023-06-10T07:29:43;9.77;;;5.65;;
44428;SDS011;30134;47.866;-4.222;2023-06-10T07:32:09;9.30;;;5.60;;
44428;SDS011;30134;47.866;-4.222;2023-06-10T07:34:36;7.93;;;5.15;;
44428;SDS011;30134;47.866;-4.222;2023-06-10T07:37:02;8.30;;;5.05;;
44428;SDS011;30134;47.866;-4.222;2023-06-10T07:39:29;9.40;;;5.13;;
44428;SDS011;30134;47.866;-4.222;2023-06-10T07:41:55;6.60;;;4.90;;
44428;SDS011;30134;47.866;-4.222;2023-06-10T07:44:22;6.30;;;4.35;;
44428;SDS011;30134;47.866;-4.222;2023-06-10T07:46:49;7.78;;;4.38;;
44428;SDS011;30134;47.866;-4.222;2023-06-10T07:49:15;7.45;;;4.53;;
44428;SDS011;30134;47.866;-4.222;2023-06-10T07:51:42;5.60;;;3.88;;
44428;SDS011;30134;47.866;-4.222;2023-06-10T07:54:08;7.63;;;4.50;;
44428;SDS011;30134;47.866;-4.222;2023-06-10T07:56:34;7.40;;;4.60;;
44428;SDS011;30134;47.866;-4.222;2023-06-10T07:59:00;8.23;;;3.78;;
44428;SDS011;30134;47.866;-4.222;2023-06-10T08:01:26;8.25;;;3.72;;
44428;SDS011;30134;47.866;-4.222;2023-06-10T08:03:52;6.47;;;3.80;;
44428;SDS011;30134;47.866;-4.222;2023-06-10T08:06:18;7.25;;;4.05;;
44428;SDS011;30134;47.866;-4.222;2023-06-10T08:08:44;5.72;;;3.83;;
44428;SDS011;30134;47.866;-4.222;2023-06-10T08:11:11;6.05;;;3.70;;
44428;SDS011;30134;47.866;-4.222;2023-06-10T08:13:37;5.35;;;3.22;;
44428;SDS011;30134;47.866;-4.222;2023-06-10T08:16:04;5.95;;;2.88;;
44428;SDS011;30134;47.866;-4.222;2023-06-10T08:18:31;5.20;;;3.63;;
44428;SDS011;30134;47.866;-4.222;2023-06-10T08:20:57;5.60;;;3.20;;
44428;SDS011;30134;47.866;-4.222;2023-06-10T08:23:26;5.82;;;3.00;;
44428;SDS011;30134;47.866;-4.222;2023-06-10T08:25:53;6.53;;;2.95;;
44428;SDS011;30134;47.866;-4.222;2023-06-10T08:28:19;6.20;;;3.08;;
44428;SDS011;30134;47.866;-4.222;2023-06-10T08:30:45;4.20;;;3.10;;
44428;SDS011;30134;47.866;-4.222;2023-06-10T08:33:11;4.75;;;2.72;;
44428;SDS011;30134;47.866;-4.222;2023-06-10T08:35:38;5.30;;;2.90;;
44428;SDS011;30134;47.866;-4.222;2023-06-10T08:38:04;3.78;;;2.50;;
44428;SDS011;30134;47.866;-4.222;2023-06-10T08:40:31;3.65;;;2.65;;
44428;SDS011;30134;47.866;-4.222;2023-06-10T08:43:08;3.42;;;2.15;;
44428;SDS011;30134;47.866;-4.222;2023-06-10T08:46:03;3.10;;;2.10;;
44428;SDS011;30134;47.866;-4.222;2023-06-10T08:48:29;3.80;;;2.28;;
44428;SDS011;30134;47.866;-4.222;2023-06-10T08:50:59;4.97;;;2.15;;
44428;SDS011;30134;47.866;-4.222;2023-06-10T08:53:28;12.63;;;5.90;;
44428;SDS011;30134;47.866;-4.222;2023-06-10T08:55:57;17.38;;;9.15;;
44428;SDS011;30134;47.866;-4.222;2023-06-10T08:58:25;18.65;;;8.93;;
44428;SDS011;30134;47.866;-4.222;2023-06-10T09:00:53;10.13;;;6.30;;
44428;SDS011;30134;47.866;-4.222;2023-06-10T09:03:20;9.55;;;4.85;;
44428;SDS011;30134;47.866;-4.222;2023-06-10T09:05:49;7.78;;;3.78;;
44428;SDS011;30134;47.866;-4.222;2023-06-10T09:08:15;6.25;;;3.67;;
44428;SDS011;30134;47.866;-4.222;2023-06-10T09:10:42;5.75;;;2.90;;
44428;SDS011;30134;47.866;-4.222;2023-06-10T09:13:08;8.98;;;3.33;;
44428;SDS011;30134;47.866;-4.222;2023-06-10T09:15:35;6.30;;;2.60;;
44428;SDS011;30134;47.866;-4.222;2023-06-10T09:18:01;5.75;;;2.33;;
44428;SDS011;30134;47.866;-4.222;2023-06-10T09:20:27;5.45;;;1.77;;
44428;SDS011;30134;47.866;-4.222;2023-06-10T09:22:53;4.65;;;1.88;;
44428;SDS011;30134;47.866;-4.222;2023-06-10T09:25:19;4.53;;;2.03;;
44428;SDS011;30134;47.866;-4.222;2023-06-10T09:28:04;6.47;;;2.10;;
44428;SDS011;30134;47.866;-4.222;2023-06-10T09:30:38;6.72;;;1.45;;
44428;SDS011;30134;47.866;-4.222;2023-06-10T09:33:09;11.40;;;1.95;;
44428;SDS011;30134;47.866;-4.222;2023-06-10T09:35:44;5.60;;;1.58;;
44428;SDS011;30134;47.866;-4.222;2023-06-10T09:38:12;9.02;;;2.00;;
44428;SDS011;30134;47.866;-4.222;2023-06-10T09:43:18;7.10;;;1.90;;
44428;SDS011;30134;47.866;-4.222;2023-06-10T09:45:51;6.38;;;1.60;;
44428;SDS011;30134;47.866;-4.222;2023-06-10T09:48:21;9.75;;;2.00;;
44428;SDS011;30134;47.866;-4.222;2023-06-10T09:50:48;9.30;;;1.98;;
44428;SDS011;30134;47.866;-4.222;2023-06-10T09:53:15;5.60;;;1.98;;
44428;SDS011;30134;47.866;-4.222;2023-06-10T09:55:43;7.85;;;1.92;;
44428;SDS011;30134;47.866;-4.222;2023-06-10T09:58:10;10.38;;;2.30;;
44428;SDS011;30134;47.866;-4.222;2023-06-10T10:00:36;6.60;;;1.80;;
44428;SDS011;30134;47.866;-4.222;2023-06-10T10:03:03;9.35;;;1.77;;
44428;SDS011;30134;47.866;-4.222;2023-06-10T10:05:31;4.43;;;1.65;;
44428;SDS011;30134;47.866;-4.222;2023-06-10T10:07:57;6.57;;;2.95;;
44428;SDS011;30134;47.866;-4.222;2023-06-10T10:10:24;8.23;;;4.50;;
44428;SDS011;30134;47.866;-4.222;2023-06-10T10:12:51;8.85;;;2.70;;
44428;SDS011;30134;47.866;-4.222;2023-06-10T10:15:22;7.95;;;2.10;;
44428;SDS011;30134;47.866;-4.222;2023-06-10T10:20:44;8.48;;;1.48;;
44428;SDS011;30134;47.866;-4.222;2023-06-10T10:23:17;8.00;;;1.27;;
44428;SDS011;30134;47.866;-4.222;2023-06-10T10:25:52;9.40;;;1.88;;
44428;SDS011;30134;47.866;-4.222;2023-06-10T10:28:20;5.68;;;1.60;;
44428;SDS011;30134;47.866;-4.222;2023-06-10T10:30:53;8.02;;;1.85;;
44428;SDS011;30134;47.866;-4.222;2023-06-10T10:33:35;5.97;;;1.58;;
44428;SDS011;30134;47.866;-4.222;2023-06-10T10:36:06;5.43;;;1.50;;
44428;SDS011;30134;47.866;-4.222;2023-06-10T10:38:32;6.75;;;1.52;;
44428;SDS011;30134;47.866;-4.222;2023-06-10T10:40:59;7.43;;;2.00;;
44428;SDS011;30134;47.866;-4.222;2023-06-10T10:43:27;5.72;;;2.00;;
44428;SDS011;30134;47.866;-4.222;2023-06-10T10:46:01;5.07;;;1.70;;
44428;SDS011;30134;47.866;-4.222;2023-06-10T10:48:37;4.75;;;1.70;;
44428;SDS011;30134;47.866;-4.222;2023-06-10T10:51:04;7.60;;;1.95;;
44428;SDS011;30134;47.866;-4.222;2023-06-10T10:53:30;6.35;;;2.05;;
44428;SDS011;30134;47.866;-4.222;2023-06-10T10:56:01;9.32;;;3.22;;
44428;SDS011;30134;47.866;-4.222;2023-06-10T10:58:39;14.13;;;4.93;;
44428;SDS011;30134;47.866;-4.222;2023-06-10T11:01:12;19.50;;;4.63;;
44428;SDS011;30134;47.866;-4.222;2023-06-10T11:03:46;12.38;;;3.88;;
44428;SDS011;30134;47.866;-4.222;2023-06-10T11:06:13;9.88;;;3.13;;
44428;SDS011;30134;47.866;-4.222;2023-06-10T11:11:27;9.95;;;2.83;;
44428;SDS011;30134;47.866;-4.222;2023-06-10T11:16:27;6.60;;;2.10;;
44428;SDS011;30134;47.866;-4.222;2023-06-10T11:18:54;8.32;;;2.20;;
44428;SDS011;30134;47.866;-4.222;2023-06-10T11:21:22;9.65;;;1.90;;
44428;SDS011;30134;47.866;-4.222;2023-06-10T11:23:50;7.72;;;1.80;;
44428;SDS011;30134;47.866;-4.222;2023-06-10T11:31:26;13.43;;;1.90;;
44428;SDS011;30134;47.866;-4.222;2023-06-10T11:33:55;7.03;;;2.15;;
44428;SDS011;30134;47.866;-4.222;2023-06-10T11:36:32;7.93;;;2.25;;
44428;SDS011;30134;47.866;-4.222;2023-06-10T11:39:03;6.75;;;2.15;;
44428;SDS011;30134;47.866;-4.222;2023-06-10T11:41:33;7.57;;;1.60;;
44428;SDS011;30134;47.866;-4.222;2023-06-10T11:44:04;8.23;;;1.80;;
44428;SDS011;30134;47.866;-4.222;2023-06-10T11:46:38;11.68;;;2.55;;
44428;SDS011;30134;47.866;-4.222;2023-06-10T11:49:05;5.10;;;1.90;;
44428;SDS011;30134;47.866;-4.222;2023-06-10T11:51:33;7.60;;;1.92;;
44428;SDS011;30134;47.866;-4.222;2023-06-10T11:54:02;6.30;;;1.90;;
44428;SDS011;30134;47.866;-4.222;2023-06-10T11:56:30;6.70;;;2.08;;
44428;SDS011;30134;47.866;-4.222;2023-06-10T12:01:29;8.32;;;2.33;;
44428;SDS011;30134;47.866;-4.222;2023-06-10T12:04:00;7.72;;;2.20;;
44428;SDS011;30134;47.866;-4.222;2023-06-10T12:06:43;7.70;;;2.50;;
44428;SDS011;30134;47.866;-4.222;2023-06-10T12:09:23;8.50;;;1.90;;
44428;SDS011;30134;47.866;-4.222;2023-06-10T12:11:53;9.55;;;1.95;;
44428;SDS011;30134;47.866;-4.222;2023-06-10T12:17:42;23.73;;;12.73;;
44428;SDS011;30134;47.866;-4.222;2023-06-10T12:20:09;14.65;;;7.97;;
44428;SDS011;30134;47.866;-4.222;2023-06-10T12:22:55;14.88;;;6.00;;
44428;SDS011;30134;47.866;-4.222;2023-06-10T12:25:25;10.63;;;4.63;;
44428;SDS011;30134;47.866;-4.222;2023-06-10T12:27:56;9.32;;;3.88;;
44428;SDS011;30134;47.866;-4.222;2023-06-10T12:30:24;7.55;;;3.45;;
44428;SDS011;30134;47.866;-4.222;2023-06-10T12:32:52;5.88;;;2.70;;
44428;SDS011;30134;47.866;-4.222;2023-06-10T12:35:19;7.22;;;2.50;;
44428;SDS011;30134;47.866;-4.222;2023-06-10T12:37:59;7.63;;;2.38;;
44428;SDS011;30134;47.866;-4.222;2023-06-10T12:40:33;6.78;;;2.60;;
44428;SDS011;30134;47.866;-4.222;2023-06-10T12:43:02;6.20;;;2.20;;
44428;SDS011;30134;47.866;-4.222;2023-06-10T12:45:32;4.10;;;1.60;;
44428;SDS011;30134;47.866;-4.222;2023-06-10T12:50:40;4.57;;;1.70;;
44428;SDS011;30134;47.866;-4.222;2023-06-10T12:53:08;4.10;;;1.75;;
44428;SDS011;30134;47.866;-4.222;2023-06-10T12:55:36;4.13;;;1.55;;
44428;SDS011;30134;47.866;-4.222;2023-06-10T12:58:03;7.13;;;1.90;;
44428;SDS011;30134;47.866;-4.222;2023-06-10T13:00:29;4.10;;;1.40;;
44428;SDS011;30134;47.866;-4.222;2023-06-10T13:02:56;8.50;;;1.60;;
44428;SDS011;30134;47.866;-4.222;2023-06-10T13:05:27;11.20;;;1.70;;
44428;SDS011;30134;47.866;-4.222;2023-06-10T13:07:54;4.47;;;1.20;;
44428;SDS011;30134;47.866;-4.222;2023-06-10T13:10:20;5.53;;;1.60;;
44428;SDS011;30134;47.866;-4.222;2023-06-10T13:12:47;4.75;;;1.50;;
44428;SDS011;30134;47.866;-4.222;2023-06-10T13:15:14;4.57;;;1.55;;
44428;SDS011;30134;47.866;-4.222;2023-06-10T13:17:44;6.72;;;2.00;;
44428;SDS011;30134;47.866;-4.222;2023-06-10T13:20:17;8.00;;;2.08;;
44428;SDS011;30134;47.866;-4.222;2023-06-10T13:22:44;5.00;;;1.40;;
44428;SDS011;30134;47.866;-4.222;2023-06-10T13:25:10;5.10;;;1.50;;
44428;SDS011;30134;47.866;-4.222;2023-06-10T13:27:37;3.92;;;1.33;;
44428;SDS011;30134;47.866;-4.222;2023-06-10T13:30:04;6.55;;;1.73;;
44428;SDS011;30134;47.866;-4.222;2023-06-10T13:32:32;4.60;;;1.52;;
44428;SDS011;30134;47.866;-4.222;2023-06-10T13:34:58;4.25;;;2.10;;
44428;SDS011;30134;47.866;-4.222;2023-06-10T13:37:24;5.30;;;1.90;;
44428;SDS011;30134;47.866;-4.222;2023-06-10T13:39:51;7.07;;;1.67;;
44428;SDS011;30134;47.866;-4.222;2023-06-10T13:42:17;5.72;;;1.67;;
44428;SDS011;30134;47.866;-4.222;2023-06-10T13:44:44;9.85;;;1.83;;
44428;SDS011;30134;47.866;-4.222;2023-06-10T13:47:12;5.00;;;1.45;;
44428;SDS011;30134;47.866;-4.222;2023-06-10T13:49:39;7.05;;;1.90;;
44428;SDS011;30134;47.866;-4.222;2023-06-10T13:52:06;10.10;;;1.73;;
44428;SDS011;30134;47.866;-4.222;2023-06-10T13:54:33;5.38;;;1.65;;
44428;SDS011;30134;47.866;-4.222;2023-06-10T13:57:03;7.38;;;1.98;;
44428;SDS011;30134;47.866;-4.222;2023-06-10T13:59:30;5.00;;;1.60;;
44428;SDS011;30134;47.866;-4.222;2023-06-10T14:01:56;6.07;;;2.08;;
44428;SDS011;30134;47.866;-4.222;2023-06-10T14:04:23;6.10;;;1.85;;
44428;SDS011;30134;47.866;-4.222;2023-06-10T14:06:49;6.00;;;1.70;;
44428;SDS011;30134;47.866;-4.222;2023-06-10T14:09:15;9.02;;;1.90;;
44428;SDS011;30134;47.866;-4.222;2023-06-10T14:11:41;8.25;;;1.58;;
44428;SDS011;30134;47.866;-4.222;2023-06-10T14:14:07;6.47;;;1.90;;
44428;SDS011;30134;47.866;-4.222;2023-06-10T14:16:34;6.63;;;1.52;;
44428;SDS011;30134;47.866;-4.222;2023-06-10T14:19:00;6.85;;;1.80;;
44428;SDS011;30134;47.866;-4.222;2023-06-10T14:21:27;8.43;;;1.90;;
44428;SDS011;30134;47.866;-4.222;2023-06-10T14:23:53;9.10;;;2.15;;
44428;SDS011;30134;47.866;-4.222;2023-06-10T14:26:19;8.15;;;2.03;;
44428;SDS011;30134;47.866;-4.222;2023-06-10T14:28:47;6.03;;;1.60;;
44428;SDS011;30134;47.866;-4.222;2023-06-10T14:31:14;5.93;;;1.73;;
44428;SDS011;30134;47.866;-4.222;2023-06-10T14:33:41;5.45;;;1.85;;
44428;SDS011;30134;47.866;-4.222;2023-06-10T14:36:09;10.45;;;2.00;;
44428;SDS011;30134;47.866;-4.222;2023-06-10T14:38:36;7.90;;;1.90;;
44428;SDS011;30134;47.866;-4.222;2023-06-10T14:41:02;6.45;;;2.05;;
44428;SDS011;30134;47.866;-4.222;2023-06-10T14:43:28;9.27;;;2.00;;
44428;SDS011;30134;47.866;-4.222;2023-06-10T14:45:57;9.98;;;2.08;;
44428;SDS011;30134;47.866;-4.222;2023-06-10T14:48:23;6.10;;;2.05;;
44428;SDS011;30134;47.866;-4.222;2023-06-10T14:50:49;6.40;;;2.25;;
44428;SDS011;30134;47.866;-4.222;2023-06-10T14:53:18;8.88;;;2.13;;
44428;SDS011;30134;47.866;-4.222;2023-06-10T14:55:44;6.00;;;2.05;;
44428;SDS011;30134;47.866;-4.222;2023-06-10T14:58:11;5.28;;;1.77;;
44428;SDS011;30134;47.866;-4.222;2023-06-10T15:00:38;8.02;;;2.38;;
44428;SDS011;30134;47.866;-4.222;2023-06-10T15:03:04;8.48;;;2.58;;
44428;SDS011;30134;47.866;-4.222;2023-06-10T15:05:30;9.38;;;2.20;;